In Rescue
 
Open Full Screen Window  High Contrast Mode
Wind Gusting 00 knots
11
October 19, 2020 4:50 PM PDT
Weather Information
Wind Direction
  240 °
Wind Speed
  11 kt (13 mph)
Wind Gust
  00 kt (0 mph)
Altimeter
29.93 in
Visibility
10 SM
Temperature
24° C
75° F
Dewpoint
10° C
50° F
Humidity
41%
1hr Rain Fall
00.00 in.
24hr Rain Fall
00.00 in.
Sky Condition
Clear
VFR

METAR KCVH 192350Z AUTO 24011KT 10SM CLR 24/10 A2993 RMK A01

FAA Disclaimer: The data displayed is for advisory purposes only and is not to be used for flight planning or operations.